Chicago, Illinois
Traffic Map
Current Weather Conditions
Chicago, Illinois
Overcast Moderate Snow
Overcast
-1°
Feels Like: -8°
Wind Chill: -8° Ceiling: 600
Heat Index: -1° Visibility: 0.5mi
Dew Point: -2° Wind: 18mph
Humidity: 92% Direction: 60° (ENE)
Pressure: 29.8in Gusts: 25mph
Raw Report DataKMDW 011753Z 06016G22KT 1/2SM R31C/3000V4000FT SN FZFG OVC006 M01/M02 A2980 RMK AO2 PK WND 06029/1729 SLP102 4/007 SNINCR1/7 P0001 60014 T10111022 10006 21011 58037
Traffic Incident Summary
Active as of:
Severity:
Category:
InformationThere was an issue retrieving the traffic information for this location. Please try a different location or try again shortly.
Advertisements
Track Severe Weather on mobile